sensor_id;sensor_type;location;lat;lon;timestamp;temperature;humidity
79439;DHT22;68889;48.232;10.110;2023-08-17T00:00:11;20.00;93.40
79439;DHT22;68889;48.232;10.110;2023-08-17T00:02:40;20.00;93.40
79439;DHT22;68889;48.232;10.110;2023-08-17T00:05:06;20.00;92.90
79439;DHT22;68889;48.232;10.110;2023-08-17T00:07:32;19.90;92.90
79439;DHT22;68889;48.232;10.110;2023-08-17T00:09:58;20.00;92.40
79439;DHT22;68889;48.232;10.110;2023-08-17T00:12:23;20.00;93.90
79439;DHT22;68889;48.232;10.110;2023-08-17T00:14:49;19.90;93.60
79439;DHT22;68889;48.232;10.110;2023-08-17T00:17:14;20.00;93.20
79439;DHT22;68889;48.232;10.110;2023-08-17T00:19:40;19.90;92.80
79439;DHT22;68889;48.232;10.110;2023-08-17T00:22:05;19.90;93.30
79439;DHT22;68889;48.232;10.110;2023-08-17T00:24:31;19.80;93.80
79439;DHT22;68889;48.232;10.110;2023-08-17T00:26:56;19.80;93.90
79439;DHT22;68889;48.232;10.110;2023-08-17T00:29:22;19.80;93.20
79439;DHT22;68889;48.232;10.110;2023-08-17T00:31:47;19.70;93.90
79439;DHT22;68889;48.232;10.110;2023-08-17T00:34:13;19.70;93.20
79439;DHT22;68889;48.232;10.110;2023-08-17T00:36:38;19.60;94.40
79439;DHT22;68889;48.232;10.110;2023-08-17T00:39:04;19.60;94.10
79439;DHT22;68889;48.232;10.110;2023-08-17T00:41:30;19.60;93.60
79439;DHT22;68889;48.232;10.110;2023-08-17T00:43:56;19.50;94.40
79439;DHT22;68889;48.232;10.110;2023-08-17T00:46:21;19.50;95.10
79439;DHT22;68889;48.232;10.110;2023-08-17T00:48:48;19.50;94.20
79439;DHT22;68889;48.232;10.110;2023-08-17T00:51:14;19.50;93.50
79439;DHT22;68889;48.232;10.110;2023-08-17T00:53:40;19.50;94.90
79439;DHT22;68889;48.232;10.110;2023-08-17T00:56:07;19.50;95.00
79439;DHT22;68889;48.232;10.110;2023-08-17T00:58:33;19.50;94.70
79439;DHT22;68889;48.232;10.110;2023-08-17T01:00:59;19.50;94.40
79439;DHT22;68889;48.232;10.110;2023-08-17T01:03:28;19.50;94.40
79439;DHT22;68889;48.232;10.110;2023-08-17T01:05:56;19.50;93.70
79439;DHT22;68889;48.232;10.110;2023-08-17T01:08:21;19.50;94.30
79439;DHT22;68889;48.232;10.110;2023-08-17T01:10:53;19.40;95.00
79439;DHT22;68889;48.232;10.110;2023-08-17T01:13:34;19.40;94.60
79439;DHT22;68889;48.232;10.110;2023-08-17T01:16:03;19.40;93.90
79439;DHT22;68889;48.232;10.110;2023-08-17T01:18:35;19.30;94.80
79439;DHT22;68889;48.232;10.110;2023-08-17T01:21:05;19.30;95.30
79439;DHT22;68889;48.232;10.110;2023-08-17T01:23:31;19.30;95.50
79439;DHT22;68889;48.232;10.110;2023-08-17T01:25:57;19.30;95.20
79439;DHT22;68889;48.232;10.110;2023-08-17T01:28:23;19.30;95.60
79439;DHT22;68889;48.232;10.110;2023-08-17T01:33:20;19.20;95.40
79439;DHT22;68889;48.232;10.110;2023-08-17T01:36:03;19.10;95.00
79439;DHT22;68889;48.232;10.110;2023-08-17T01:38:31;19.10;95.60
79439;DHT22;68889;48.232;10.110;2023-08-17T01:40:58;19.00;96.20
79439;DHT22;68889;48.232;10.110;2023-08-17T01:43:26;19.00;95.70
79439;DHT22;68889;48.232;10.110;2023-08-17T01:45:53;19.00;95.10
79439;DHT22;68889;48.232;10.110;2023-08-17T01:48:19;19.00;94.90
79439;DHT22;68889;48.232;10.110;2023-08-17T01:50:44;19.00;95.40
79439;DHT22;68889;48.232;10.110;2023-08-17T01:53:10;18.90;94.70
79439;DHT22;68889;48.232;10.110;2023-08-17T01:55:37;18.90;95.50
79439;DHT22;68889;48.232;10.110;2023-08-17T01:58:02;18.90;95.30
79439;DHT22;68889;48.232;10.110;2023-08-17T02:00:28;18.80;95.30
79439;DHT22;68889;48.232;10.110;2023-08-17T02:02:53;18.80;95.00
79439;DHT22;68889;48.232;10.110;2023-08-17T02:05:19;18.80;96.10
79439;DHT22;68889;48.232;10.110;2023-08-17T02:07:44;18.70;96.00
79439;DHT22;68889;48.232;10.110;2023-08-17T02:10:10;18.70;96.60
79439;DHT22;68889;48.232;10.110;2023-08-17T02:12:36;18.70;95.90
79439;DHT22;68889;48.232;10.110;2023-08-17T02:15:01;18.70;96.20
79439;DHT22;68889;48.232;10.110;2023-08-17T02:17:27;18.70;96.00
79439;DHT22;68889;48.232;10.110;2023-08-17T02:19:52;18.70;95.80
79439;DHT22;68889;48.232;10.110;2023-08-17T02:22:18;18.70;95.90
79439;DHT22;68889;48.232;10.110;2023-08-17T02:24:43;18.70;95.60
79439;DHT22;68889;48.232;10.110;2023-08-17T02:27:09;18.60;95.80
79439;DHT22;68889;48.232;10.110;2023-08-17T02:29:34;18.60;94.90
79439;DHT22;68889;48.232;10.110;2023-08-17T02:32:00;18.60;96.10
79439;DHT22;68889;48.232;10.110;2023-08-17T02:34:26;18.60;96.70
79439;DHT22;68889;48.232;10.110;2023-08-17T02:36:51;18.50;97.20
79439;DHT22;68889;48.232;10.110;2023-08-17T02:39:17;18.50;97.00
79439;DHT22;68889;48.232;10.110;2023-08-17T02:41:42;18.60;97.40
79439;DHT22;68889;48.232;10.110;2023-08-17T02:44:10;18.50;97.70
79439;DHT22;68889;48.232;10.110;2023-08-17T02:46:36;18.50;97.40
79439;DHT22;68889;48.232;10.110;2023-08-17T02:49:01;18.50;97.60
79439;DHT22;68889;48.232;10.110;2023-08-17T02:51:27;18.50;96.90
79439;DHT22;68889;48.232;10.110;2023-08-17T02:53:52;18.50;96.50
79439;DHT22;68889;48.232;10.110;2023-08-17T02:56:18;18.50;95.80
79439;DHT22;68889;48.232;10.110;2023-08-17T02:58:43;18.50;96.50
79439;DHT22;68889;48.232;10.110;2023-08-17T03:01:09;18.50;97.40
79439;DHT22;68889;48.232;10.110;2023-08-17T03:03:35;18.50;98.10
79439;DHT22;68889;48.232;10.110;2023-08-17T03:06:01;18.50;97.50
79439;DHT22;68889;48.232;10.110;2023-08-17T03:08:27;18.40;98.30
79439;DHT22;68889;48.232;10.110;2023-08-17T03:10:52;18.40;98.20
79439;DHT22;68889;48.232;10.110;2023-08-17T03:13:18;18.40;98.00
79439;DHT22;68889;48.232;10.110;2023-08-17T03:15:43;18.50;97.50
79439;DHT22;68889;48.232;10.110;2023-08-17T03:18:09;18.50;97.60
79439;DHT22;68889;48.232;10.110;2023-08-17T03:20:34;18.40;96.80
79439;DHT22;68889;48.232;10.110;2023-08-17T03:23:00;18.40;97.20
79439;DHT22;68889;48.232;10.110;2023-08-17T03:25:25;18.30;97.20
79439;DHT22;68889;48.232;10.110;2023-08-17T03:27:51;18.30;97.60
79439;DHT22;68889;48.232;10.110;2023-08-17T03:30:16;18.20;97.10
79439;DHT22;68889;48.232;10.110;2023-08-17T03:32:42;18.20;97.20
79439;DHT22;68889;48.232;10.110;2023-08-17T03:35:08;18.20;97.00
79439;DHT22;68889;48.232;10.110;2023-08-17T03:37:34;18.20;97.10
79439;DHT22;68889;48.232;10.110;2023-08-17T03:39:59;18.20;96.10
79439;DHT22;68889;48.232;10.110;2023-08-17T03:42:26;18.20;96.40
79439;DHT22;68889;48.232;10.110;2023-08-17T03:44:52;18.20;96.80
79439;DHT22;68889;48.232;10.110;2023-08-17T03:47:18;18.10;95.90
79439;DHT22;68889;48.232;10.110;2023-08-17T03:49:43;18.10;95.90
79439;DHT22;68889;48.232;10.110;2023-08-17T03:52:09;18.10;96.80
79439;DHT22;68889;48.232;10.110;2023-08-17T03:54:35;18.10;97.40
79439;DHT22;68889;48.232;10.110;2023-08-17T03:57:01;18.10;96.20
79439;DHT22;68889;48.232;10.110;2023-08-17T03:59:27;18.10;96.20
79439;DHT22;68889;48.232;10.110;2023-08-17T04:01:53;18.00;96.60
79439;DHT22;68889;48.232;10.110;2023-08-17T04:04:18;18.00;96.70
79439;DHT22;68889;48.232;10.110;2023-08-17T04:06:44;18.00;97.80
79439;DHT22;68889;48.232;10.110;2023-08-17T04:09:09;17.90;97.70
79439;DHT22;68889;48.232;10.110;2023-08-17T04:11:35;17.90;96.60
79439;DHT22;68889;48.232;10.110;2023-08-17T04:14:02;17.90;97.90
79439;DHT22;68889;48.232;10.110;2023-08-17T04:16:28;17.90;97.60
79439;DHT22;68889;48.232;10.110;2023-08-17T04:18:53;17.90;96.80
79439;DHT22;68889;48.232;10.110;2023-08-17T04:21:19;17.90;96.00
79439;DHT22;68889;48.232;10.110;2023-08-17T04:23:45;17.80;96.50
79439;DHT22;68889;48.232;10.110;2023-08-17T04:26:11;17.80;97.10
79439;DHT22;68889;48.232;10.110;2023-08-17T04:28:36;17.80;97.20
79439;DHT22;68889;48.232;10.110;2023-08-17T04:31:02;17.80;97.30
79439;DHT22;68889;48.232;10.110;2023-08-17T04:33:27;17.80;97.70
79439;DHT22;68889;48.232;10.110;2023-08-17T04:35:53;17.80;97.20
79439;DHT22;68889;48.232;10.110;2023-08-17T04:38:18;17.80;96.50
79439;DHT22;68889;48.232;10.110;2023-08-17T04:40:44;17.80;96.10
79439;DHT22;68889;48.232;10.110;2023-08-17T04:43:10;17.90;96.20
79439;DHT22;68889;48.232;10.110;2023-08-17T04:45:35;17.80;97.50
79439;DHT22;68889;48.232;10.110;2023-08-17T04:48:01;17.80;98.00
79439;DHT22;68889;48.232;10.110;2023-08-17T04:50:26;17.80;97.30
79439;DHT22;68889;48.232;10.110;2023-08-17T04:52:52;17.80;97.10
79439;DHT22;68889;48.232;10.110;2023-08-17T04:55:17;17.90;96.80
79439;DHT22;68889;48.232;10.110;2023-08-17T04:57:43;17.90;96.70
79439;DHT22;68889;48.232;10.110;2023-08-17T05:00:09;17.90;97.50
79439;DHT22;68889;48.232;10.110;2023-08-17T05:02:36;17.90;97.90
79439;DHT22;68889;48.232;10.110;2023-08-17T05:05:06;17.90;97.70
79439;DHT22;68889;48.232;10.110;2023-08-17T05:07:32;17.90;97.20
79439;DHT22;68889;48.232;10.110;2023-08-17T05:09:58;18.00;96.30
79439;DHT22;68889;48.232;10.110;2023-08-17T05:12:23;18.00;97.00
79439;DHT22;68889;48.232;10.110;2023-08-17T05:14:49;18.10;96.90
79439;DHT22;68889;48.232;10.110;2023-08-17T05:17:14;18.10;96.60
79439;DHT22;68889;48.232;10.110;2023-08-17T05:19:40;18.20;96.10
79439;DHT22;68889;48.232;10.110;2023-08-17T05:22:11;18.20;96.90
79439;DHT22;68889;48.232;10.110;2023-08-17T05:24:37;18.30;97.00
79439;DHT22;68889;48.232;10.110;2023-08-17T05:27:02;18.30;96.50
79439;DHT22;68889;48.232;10.110;2023-08-17T05:29:28;18.40;97.30
79439;DHT22;68889;48.232;10.110;2023-08-17T05:31:53;18.40;97.20
79439;DHT22;68889;48.232;10.110;2023-08-17T05:34:19;18.40;97.10
79439;DHT22;68889;48.232;10.110;2023-08-17T05:36:44;18.50;97.10
79439;DHT22;68889;48.232;10.110;2023-08-17T05:39:10;18.50;97.30
79439;DHT22;68889;48.232;10.110;2023-08-17T05:41:36;18.50;97.40
79439;DHT22;68889;48.232;10.110;2023-08-17T05:44:02;18.60;97.40
79439;DHT22;68889;48.232;10.110;2023-08-17T05:46:27;18.70;97.10
79439;DHT22;68889;48.232;10.110;2023-08-17T05:48:53;18.80;97.30
79439;DHT22;68889;48.232;10.110;2023-08-17T05:51:18;18.90;96.90
79439;DHT22;68889;48.232;10.110;2023-08-17T05:53:44;19.00;96.40
79439;DHT22;68889;48.232;10.110;2023-08-17T05:56:10;19.10;96.40
79439;DHT22;68889;48.232;10.110;2023-08-17T05:58:35;19.20;95.60
79439;DHT22;68889;48.232;10.110;2023-08-17T06:01:04;19.30;95.30
79439;DHT22;68889;48.232;10.110;2023-08-17T06:03:30;19.50;95.00
79439;DHT22;68889;48.232;10.110;2023-08-17T06:05:55;19.70;94.50
79439;DHT22;68889;48.232;10.110;2023-08-17T06:08:21;19.80;94.00
79439;DHT22;68889;48.232;10.110;2023-08-17T06:10:46;19.90;93.80
79439;DHT22;68889;48.232;10.110;2023-08-17T06:13:12;20.00;93.60
79439;DHT22;68889;48.232;10.110;2023-08-17T06:15:37;20.10;93.70
79439;DHT22;68889;48.232;10.110;2023-08-17T06:18:03;20.20;94.10
79439;DHT22;68889;48.232;10.110;2023-08-17T06:20:29;20.30;93.20
79439;DHT22;68889;48.232;10.110;2023-08-17T06:22:54;20.40;92.40
79439;DHT22;68889;48.232;10.110;2023-08-17T06:25:20;20.60;93.60
79439;DHT22;68889;48.232;10.110;2023-08-17T06:27:46;20.70;92.80
79439;DHT22;68889;48.232;10.110;2023-08-17T06:30:13;20.80;92.70
79439;DHT22;68889;48.232;10.110;2023-08-17T06:32:39;20.90;92.10
79439;DHT22;68889;48.232;10.110;2023-08-17T06:35:05;21.00;91.70
79439;DHT22;68889;48.232;10.110;2023-08-17T06:37:31;21.10;89.60
79439;DHT22;68889;48.232;10.110;2023-08-17T06:39:57;21.10;87.90
79439;DHT22;68889;48.232;10.110;2023-08-17T06:42:22;21.10;89.30
79439;DHT22;68889;48.232;10.110;2023-08-17T06:44:48;21.10;90.10
79439;DHT22;68889;48.232;10.110;2023-08-17T06:47:13;21.20;90.00
79439;DHT22;68889;48.232;10.110;2023-08-17T06:49:39;21.30;88.00
79439;DHT22;68889;48.232;10.110;2023-08-17T06:52:04;21.40;88.70
79439;DHT22;68889;48.232;10.110;2023-08-17T06:54:30;21.50;87.60
79439;DHT22;68889;48.232;10.110;2023-08-17T06:56:57;21.60;88.50
79439;DHT22;68889;48.232;10.110;2023-08-17T06:59:23;21.70;86.90
79439;DHT22;68889;48.232;10.110;2023-08-17T07:01:48;21.90;87.70
79439;DHT22;68889;48.232;10.110;2023-08-17T07:04:14;22.00;87.00
79439;DHT22;68889;48.232;10.110;2023-08-17T07:06:40;22.20;86.70
79439;DHT22;68889;48.232;10.110;2023-08-17T07:09:06;22.40;85.90
79439;DHT22;68889;48.232;10.110;2023-08-17T07:11:32;22.60;85.50
79439;DHT22;68889;48.232;10.110;2023-08-17T07:13:58;22.70;85.10
79439;DHT22;68889;48.232;10.110;2023-08-17T07:16:23;22.80;85.60
79439;DHT22;68889;48.232;10.110;2023-08-17T07:18:49;23.00;85.20
79439;DHT22;68889;48.232;10.110;2023-08-17T07:21:14;23.20;83.80
79439;DHT22;68889;48.232;10.110;2023-08-17T07:23:44;23.40;85.20
79439;DHT22;68889;48.232;10.110;2023-08-17T07:26:10;23.60;84.30
79439;DHT22;68889;48.232;10.110;2023-08-17T07:28:35;23.70;84.30
79439;DHT22;68889;48.232;10.110;2023-08-17T07:31:01;23.90;82.70
79439;DHT22;68889;48.232;10.110;2023-08-17T07:33:26;24.00;84.00
79439;DHT22;68889;48.232;10.110;2023-08-17T07:35:52;24.10;80.00
79439;DHT22;68889;48.232;10.110;2023-08-17T07:38:19;24.10;81.50
79439;DHT22;68889;48.232;10.110;2023-08-17T07:40:44;24.20;81.00
79439;DHT22;68889;48.232;10.110;2023-08-17T07:43:10;24.30;81.00
79439;DHT22;68889;48.232;10.110;2023-08-17T07:45:35;24.40;81.50
79439;DHT22;68889;48.232;10.110;2023-08-17T07:48:01;24.60;82.40
79439;DHT22;68889;48.232;10.110;2023-08-17T07:50:26;24.70;78.60
79439;DHT22;68889;48.232;10.110;2023-08-17T07:52:52;24.90;77.00
79439;DHT22;68889;48.232;10.110;2023-08-17T07:55:18;25.00;75.00
79439;DHT22;68889;48.232;10.110;2023-08-17T07:57:43;25.00;75.50
79439;DHT22;68889;48.232;10.110;2023-08-17T08:00:09;25.20;75.40
79439;DHT22;68889;48.232;10.110;2023-08-17T08:02:35;25.30;74.60
79439;DHT22;68889;48.232;10.110;2023-08-17T08:05:00;25.40;76.20
79439;DHT22;68889;48.232;10.110;2023-08-17T08:07:26;25.60;75.70
79439;DHT22;68889;48.232;10.110;2023-08-17T08:09:51;25.60;74.00
79439;DHT22;68889;48.232;10.110;2023-08-17T08:12:17;25.80;74.30
79439;DHT22;68889;48.232;10.110;2023-08-17T08:14:43;26.00;75.30
79439;DHT22;68889;48.232;10.110;2023-08-17T08:17:08;26.10;73.10
79439;DHT22;68889;48.232;10.110;2023-08-17T08:19:34;26.30;70.70
79439;DHT22;68889;48.232;10.110;2023-08-17T08:22:00;26.40;73.10
79439;DHT22;68889;48.232;10.110;2023-08-17T08:24:26;26.60;72.50
79439;DHT22;68889;48.232;10.110;2023-08-17T08:26:56;26.70;72.30
79439;DHT22;68889;48.232;10.110;2023-08-17T08:29:22;26.70;71.60
79439;DHT22;68889;48.232;10.110;2023-08-17T08:31:47;26.80;72.70
79439;DHT22;68889;48.232;10.110;2023-08-17T08:34:13;26.90;73.70
79439;DHT22;68889;48.232;10.110;2023-08-17T08:36:38;27.00;73.70
79439;DHT22;68889;48.232;10.110;2023-08-17T08:39:04;27.00;74.30
79439;DHT22;68889;48.232;10.110;2023-08-17T08:41:30;27.10;73.50
79439;DHT22;68889;48.232;10.110;2023-08-17T08:43:56;27.10;73.90
79439;DHT22;68889;48.232;10.110;2023-08-17T08:46:24;27.10;74.00
79439;DHT22;68889;48.232;10.110;2023-08-17T08:48:52;27.10;74.60
79439;DHT22;68889;48.232;10.110;2023-08-17T08:51:25;27.20;74.80
79439;DHT22;68889;48.232;10.110;2023-08-17T08:53:57;27.50;74.30
79439;DHT22;68889;48.232;10.110;2023-08-17T08:56:25;27.80;71.90
79439;DHT22;68889;48.232;10.110;2023-08-17T08:58:52;28.00;72.10
79439;DHT22;68889;48.232;10.110;2023-08-17T09:01:18;28.10;70.50
79439;DHT22;68889;48.232;10.110;2023-08-17T09:03:46;28.20;72.10
79439;DHT22;68889;48.232;10.110;2023-08-17T09:06:13;28.40;71.40
79439;DHT22;68889;48.232;10.110;2023-08-17T09:08:38;28.70;66.30
79439;DHT22;68889;48.232;10.110;2023-08-17T09:11:05;28.90;67.70
79439;DHT22;68889;48.232;10.110;2023-08-17T09:13:31;29.10;66.10
79439;DHT22;68889;48.232;10.110;2023-08-17T09:15:58;29.20;64.40
79439;DHT22;68889;48.232;10.110;2023-08-17T09:18:25;29.20;64.60
79439;DHT22;68889;48.232;10.110;2023-08-17T09:20:51;29.00;67.20
79439;DHT22;68889;48.232;10.110;2023-08-17T09:23:21;29.00;68.40
79439;DHT22;68889;48.232;10.110;2023-08-17T09:25:48;29.00;67.40
79439;DHT22;68889;48.232;10.110;2023-08-17T09:28:16;29.10;68.50
79439;DHT22;68889;48.232;10.110;2023-08-17T09:30:59;29.10;68.40
79439;DHT22;68889;48.232;10.110;2023-08-17T09:33:30;29.10;66.30
79439;DHT22;68889;48.232;10.110;2023-08-17T09:35:57;29.20;65.50
79439;DHT22;68889;48.232;10.110;2023-08-17T09:38:23;29.30;67.50
79439;DHT22;68889;48.232;10.110;2023-08-17T09:40:49;29.40;67.00
79439;DHT22;68889;48.232;10.110;2023-08-17T09:43:15;29.50;64.70
79439;DHT22;68889;48.232;10.110;2023-08-17T09:45:43;29.70;67.80
79439;DHT22;68889;48.232;10.110;2023-08-17T09:48:15;30.10;65.60
79439;DHT22;68889;48.232;10.110;2023-08-17T09:50:43;30.40;64.90
79439;DHT22;68889;48.232;10.110;2023-08-17T09:53:13;30.60;63.70
79439;DHT22;68889;48.232;10.110;2023-08-17T09:55:41;30.80;65.60
79439;DHT22;68889;48.232;10.110;2023-08-17T09:58:07;31.10;64.70
79439;DHT22;68889;48.232;10.110;2023-08-17T10:00:34;31.20;65.50
79439;DHT22;68889;48.232;10.110;2023-08-17T10:03:02;31.40;63.30
79439;DHT22;68889;48.232;10.110;2023-08-17T10:05:30;31.60;63.30
79439;DHT22;68889;48.232;10.110;2023-08-17T10:07:59;31.80;62.80
79439;DHT22;68889;48.232;10.110;2023-08-17T10:10:27;32.00;61.90
79439;DHT22;68889;48.232;10.110;2023-08-17T10:13:11;32.00;63.20
79439;DHT22;68889;48.232;10.110;2023-08-17T10:15:50;31.80;60.90
79439;DHT22;68889;48.232;10.110;2023-08-17T10:18:39;31.50;60.50
79439;DHT22;68889;48.232;10.110;2023-08-17T10:21:12;31.30;64.90
79439;DHT22;68889;48.232;10.110;2023-08-17T10:23:39;31.40;63.80
79439;DHT22;68889;48.232;10.110;2023-08-17T10:26:05;31.60;64.50
79439;DHT22;68889;48.232;10.110;2023-08-17T10:28:33;31.50;63.80
79439;DHT22;68889;48.232;10.110;2023-08-17T10:30:59;31.60;64.60
79439;DHT22;68889;48.232;10.110;2023-08-17T10:33:26;31.60;66.10
79439;DHT22;68889;48.232;10.110;2023-08-17T10:35:53;31.50;65.10
79439;DHT22;68889;48.232;10.110;2023-08-17T10:38:19;31.60;65.10
79439;DHT22;68889;48.232;10.110;2023-08-17T10:40:44;31.80;64.80
79439;DHT22;68889;48.232;10.110;2023-08-17T10:43:10;32.10;63.60
79439;DHT22;68889;48.232;10.110;2023-08-17T10:45:37;32.40;60.10
79439;DHT22;68889;48.232;10.110;2023-08-17T10:50:39;32.30;61.70
79439;DHT22;68889;48.232;10.110;2023-08-17T10:53:10;32.00;61.90
79439;DHT22;68889;48.232;10.110;2023-08-17T10:55:40;31.80;64.10
79439;DHT22;68889;48.232;10.110;2023-08-17T10:58:06;31.60;61.30
79439;DHT22;68889;48.232;10.110;2023-08-17T11:00:40;31.60;64.30
79439;DHT22;68889;48.232;10.110;2023-08-17T11:03:09;31.80;61.50
79439;DHT22;68889;48.232;10.110;2023-08-17T11:05:49;31.90;65.90
79439;DHT22;68889;48.232;10.110;2023-08-17T11:08:37;32.00;66.70
79439;DHT22;68889;48.232;10.110;2023-08-17T11:11:10;32.30;64.70
79439;DHT22;68889;48.232;10.110;2023-08-17T11:13:38;32.30;65.00
79439;DHT22;68889;48.232;10.110;2023-08-17T11:16:08;32.40;62.70
79439;DHT22;68889;48.232;10.110;2023-08-17T11:18:34;32.40;64.80
79439;DHT22;68889;48.232;10.110;2023-08-17T11:21:02;32.50;63.70
79439;DHT22;68889;48.232;10.110;2023-08-17T11:23:29;32.80;64.20
79439;DHT22;68889;48.232;10.110;2023-08-17T11:25:59;33.30;62.60
79439;DHT22;68889;48.232;10.110;2023-08-17T11:28:25;33.90;59.20
79439;DHT22;68889;48.232;10.110;2023-08-17T11:31:00;34.10;60.40
79439;DHT22;68889;48.232;10.110;2023-08-17T11:33:27;34.40;59.30
79439;DHT22;68889;48.232;10.110;2023-08-17T11:38:26;34.70;57.10
79439;DHT22;68889;48.232;10.110;2023-08-17T11:41:01;34.90;58.80
79439;DHT22;68889;48.232;10.110;2023-08-17T11:43:29;35.10;58.00
79439;DHT22;68889;48.232;10.110;2023-08-17T11:45:55;35.20;56.10
79439;DHT22;68889;48.232;10.110;2023-08-17T11:48:21;35.30;57.20
79439;DHT22;68889;48.232;10.110;2023-08-17T11:50:47;35.40;57.50
79439;DHT22;68889;48.232;10.110;2023-08-17T11:53:13;35.40;55.90
79439;DHT22;68889;48.232;10.110;2023-08-17T11:55:38;35.40;57.10
79439;DHT22;68889;48.232;10.110;2023-08-17T11:58:04;35.30;55.50
79439;DHT22;68889;48.232;10.110;2023-08-17T12:00:35;35.30;55.70
79439;DHT22;68889;48.232;10.110;2023-08-17T12:03:01;35.40;55.30
79439;DHT22;68889;48.232;10.110;2023-08-17T12:05:31;35.40;57.10
79439;DHT22;68889;48.232;10.110;2023-08-17T12:07:57;35.30;56.50
79439;DHT22;68889;48.232;10.110;2023-08-17T12:10:24;35.00;57.40
79439;DHT22;68889;48.232;10.110;2023-08-17T12:12:52;34.70;56.20
79439;DHT22;68889;48.232;10.110;2023-08-17T12:15:18;34.60;56.20
79439;DHT22;68889;48.232;10.110;2023-08-17T12:17:48;34.60;53.80
79439;DHT22;68889;48.232;10.110;2023-08-17T12:20:20;34.60;55.70
79439;DHT22;68889;48.232;10.110;2023-08-17T12:22:47;34.60;55.50
79439;DHT22;68889;48.232;10.110;2023-08-17T12:25:13;34.50;58.00
79439;DHT22;68889;48.232;10.110;2023-08-17T12:27:39;34.60;56.20
79439;DHT22;68889;48.232;10.110;2023-08-17T12:30:12;34.70;58.80
79439;DHT22;68889;48.232;10.110;2023-08-17T12:32:37;35.00;58.90
79439;DHT22;68889;48.232;10.110;2023-08-17T12:35:03;35.40;58.80
79439;DHT22;68889;48.232;10.110;2023-08-17T12:37:29;35.70;57.70
79439;DHT22;68889;48.232;10.110;2023-08-17T12:39:54;36.00;57.50
79439;DHT22;68889;48.232;10.110;2023-08-17T12:42:20;36.00;55.40
79439;DHT22;68889;48.232;10.110;2023-08-17T12:44:45;36.20;54.30
79439;DHT22;68889;48.232;10.110;2023-08-17T12:47:11;36.30;56.40
79439;DHT22;68889;48.232;10.110;2023-08-17T12:49:37;36.60;57.20
79439;DHT22;68889;48.232;10.110;2023-08-17T12:52:02;37.00;53.90
79439;DHT22;68889;48.232;10.110;2023-08-17T12:54:28;37.10;54.80
79439;DHT22;68889;48.232;10.110;2023-08-17T12:56:53;37.20;54.70
79439;DHT22;68889;48.232;10.110;2023-08-17T12:59:19;37.40;55.00
79439;DHT22;68889;48.232;10.110;2023-08-17T13:01:44;37.70;54.00
79439;DHT22;68889;48.232;10.110;2023-08-17T13:04:10;37.70;53.20
79439;DHT22;68889;48.232;10.110;2023-08-17T13:06:35;37.70;53.50
79439;DHT22;68889;48.232;10.110;2023-08-17T13:09:01;37.70;54.20
79439;DHT22;68889;48.232;10.110;2023-08-17T13:11:27;37.80;52.10
79439;DHT22;68889;48.232;10.110;2023-08-17T13:13:53;37.20;53.50
79439;DHT22;68889;48.232;10.110;2023-08-17T13:16:18;36.50;55.80
79439;DHT22;68889;48.232;10.110;2023-08-17T13:18:44;35.70;57.60
79439;DHT22;68889;48.232;10.110;2023-08-17T13:21:10;35.00;60.10
79439;DHT22;68889;48.232;10.110;2023-08-17T13:23:35;34.50;60.50
79439;DHT22;68889;48.232;10.110;2023-08-17T13:26:01;34.00;61.60
79439;DHT22;68889;48.232;10.110;2023-08-17T13:28:26;33.50;63.20
79439;DHT22;68889;48.232;10.110;2023-08-17T13:30:52;33.20;61.70
79439;DHT22;68889;48.232;10.110;2023-08-17T13:33:18;33.00;66.30
79439;DHT22;68889;48.232;10.110;2023-08-17T13:35:43;32.80;64.00
79439;DHT22;68889;48.232;10.110;2023-08-17T13:38:09;32.90;64.40
79439;DHT22;68889;48.232;10.110;2023-08-17T13:40:34;33.20;63.20
79439;DHT22;68889;48.232;10.110;2023-08-17T13:43:02;33.10;64.40
79439;DHT22;68889;48.232;10.110;2023-08-17T13:45:28;32.70;66.40
79439;DHT22;68889;48.232;10.110;2023-08-17T13:47:54;32.20;65.40
79439;DHT22;68889;48.232;10.110;2023-08-17T13:50:21;31.50;67.10
79439;DHT22;68889;48.232;10.110;2023-08-17T13:52:47;31.10;67.30
79439;DHT22;68889;48.232;10.110;2023-08-17T13:55:12;30.70;65.70
79439;DHT22;68889;48.232;10.110;2023-08-17T13:57:38;30.20;69.60
79439;DHT22;68889;48.232;10.110;2023-08-17T14:00:04;28.90;70.80
79439;DHT22;68889;48.232;10.110;2023-08-17T14:02:30;27.10;76.00
79439;DHT22;68889;48.232;10.110;2023-08-17T14:04:56;25.80;79.60
79439;DHT22;68889;48.232;10.110;2023-08-17T14:07:21;25.00;82.40
79439;DHT22;68889;48.232;10.110;2023-08-17T14:09:47;24.50;81.90
79439;DHT22;68889;48.232;10.110;2023-08-17T14:12:12;23.90;82.00
79439;DHT22;68889;48.232;10.110;2023-08-17T14:14:38;23.00;83.30
79439;DHT22;68889;48.232;10.110;2023-08-17T14:17:04;22.20;88.10
79439;DHT22;68889;48.232;10.110;2023-08-17T14:19:29;21.30;94.00
79439;DHT22;68889;48.232;10.110;2023-08-17T14:21:56;20.90;94.50
79439;DHT22;68889;48.232;10.110;2023-08-17T14:24:21;20.80;96.90
79439;DHT22;68889;48.232;10.110;2023-08-17T14:26:47;20.90;96.90
79439;DHT22;68889;48.232;10.110;2023-08-17T14:29:12;21.00;96.90
79439;DHT22;68889;48.232;10.110;2023-08-17T14:31:38;21.00;95.80
79439;DHT22;68889;48.232;10.110;2023-08-17T14:34:03;21.00;94.00
79439;DHT22;68889;48.232;10.110;2023-08-17T14:36:29;20.80;93.60
79439;DHT22;68889;48.232;10.110;2023-08-17T14:38:55;20.50;93.90
79439;DHT22;68889;48.232;10.110;2023-08-17T14:41:20;20.10;95.50
79439;DHT22;68889;48.232;10.110;2023-08-17T14:43:46;19.90;97.40
79439;DHT22;68889;48.232;10.110;2023-08-17T14:46:11;20.00;97.30
79439;DHT22;68889;48.232;10.110;2023-08-17T14:48:37;20.00;97.90
79439;DHT22;68889;48.232;10.110;2023-08-17T14:51:02;20.00;97.80
79439;DHT22;68889;48.232;10.110;2023-08-17T14:53:28;20.00;97.30
79439;DHT22;68889;48.232;10.110;2023-08-17T14:55:54;19.90;95.80
79439;DHT22;68889;48.232;10.110;2023-08-17T14:58:20;19.70;97.10
79439;DHT22;68889;48.232;10.110;2023-08-17T15:00:46;19.60;97.80
79439;DHT22;68889;48.232;10.110;2023-08-17T15:03:11;19.50;96.60
79439;DHT22;68889;48.232;10.110;2023-08-17T15:05:37;19.40;97.30
79439;DHT22;68889;48.232;10.110;2023-08-17T15:08:04;19.50;99.10
79439;DHT22;68889;48.232;10.110;2023-08-17T15:10:30;19.50;99.10
79439;DHT22;68889;48.232;10.110;2023-08-17T15:12:56;19.60;98.20
79439;DHT22;68889;48.232;10.110;2023-08-17T15:15:21;19.50;98.00
79439;DHT22;68889;48.232;10.110;2023-08-17T15:17:47;19.40;99.10